In Rescue
 
Open Full Screen Window  High Contrast Mode
Wind Gusting 16 knots
10
January 22, 2020 7:23 PM EST
Weather Information
Wind Direction
  210 °
Wind Speed
  10 kt (12 mph)
Wind Gust
  16 kt (18 mph)
Altimeter
30.15 in
Visibility
10 SM
Temperature
-01° C
30° F
Dewpoint
-08° C
18° F
Humidity
59%
1hr Rain Fall
00.00 in.
24hr Rain Fall
00.00 in.
Sky Condition
Clear
VFR

METAR KOSC 230023Z AUTO 21010G16KT 10SM CLR M01/M08 A3015 RMK AO2 T10111078

FAA Disclaimer: The data displayed is for advisory purposes only and is not to be used for flight planning or operations.